Time;durP1;ratioP1;P1;durP2;ratioP2;P2;SDS_P1;SDS_P2;PMS_P1;PMS_P2;Temp;Humidity;BMP_temperature;BMP_pressure;BME280_temperature;BME280_humidity;BME280_pressure;Samples;Min_cycle;Max_cycle;Signal;HPM_P1;HPM_P2
2022/09/03 00:01:23;;;;;;;4.30;3.30;;;;;;;21.12;39.44;101158.75;6041362;23;20796;-71
2022/09/03 00:03:59;;;;;;;5.25;3.40;;;;;;;21.34;39.15;101149.41;6054961;23;20098;-72
2022/09/03 00:06:37;;;;;;;5.35;3.42;;;;;;;21.13;39.53;101146.38;6053321;23;20401;-72
2022/09/03 00:09:12;;;;;;;6.78;3.58;;;;;;;21.01;40.18;101140.47;6044572;23;20097;-72
2022/09/03 00:11:50;;;;;;;8.30;3.75;;;;;;;20.98;39.76;101145.00;6054934;23;20007;-72
2022/09/03 00:14:21;;;;;;;7.32;3.45;;;;;;;21.06;40.01;101146.53;6051460;23;20017;-72
2022/09/03 00:17:17;;;;;;;7.82;3.50;;;;;;;21.03;40.12;101143.09;6054681;23;20024;-73
2022/09/03 00:19:55;;;;;;;6.90;3.83;;;;;;;21.03;40.35;101140.44;6049622;23;20720;-71
2022/09/03 00:22:31;;;;;;;8.00;3.45;;;;;;;21.14;40.04;101129.56;6054280;23;20014;-72
2022/09/03 00:25:01;;;;;;;4.78;3.47;;;;;;;21.06;39.63;101127.97;6044695;23;20582;-73
2022/09/03 00:27:31;;;;;;;4.85;3.60;;;;;;;20.78;40.55;101129.59;6060927;23;20014;-69
2022/09/03 00:30:04;;;;;;;5.43;3.40;;;;;;;20.88;40.65;101135.53;6061368;23;20010;-73
2022/09/03 00:32:46;;;;;;;6.97;3.70;;;;;;;20.77;40.76;101130.50;6050508;23;20014;-71
2022/09/03 00:35:41;;;;;;;5.93;3.60;;;;;;;20.56;40.86;101120.41;6050208;23;20322;-73
2022/09/03 00:38:17;;;;;;;7.90;3.67;;;;;;;20.53;41.32;101126.66;6048071;23;20022;-73
2022/09/03 00:41:07;;;;;;;11.57;3.60;;;;;;;20.63;41.14;101124.66;6035794;23;20437;-72
2022/09/03 00:44:11;;;;;;;6.80;3.60;;;;;;;20.29;41.71;101126.31;6048983;23;20090;-72
2022/09/03 00:46:59;;;;;;;8.65;3.70;;;;;;;20.35;41.59;101135.03;6059020;23;20007;-72
2022/09/03 00:50:01;;;;;;;6.30;3.45;;;;;;;20.51;41.29;101141.69;6052741;23;20017;-72
2022/09/03 00:52:42;;;;;;;7.13;3.80;;;;;;;20.61;41.17;101132.63;6053629;23;20014;-72
2022/09/03 00:55:29;;;;;;;7.30;3.80;;;;;;;20.62;41.33;101136.16;6042066;23;20006;-71
2022/09/03 00:57:58;;;;;;;5.43;3.80;;;;;;;20.52;41.52;101137.28;6058617;23;20501;-71
2022/09/03 01:00:24;;;;;;;5.25;3.58;;;;;;;20.63;41.27;101135.25;6055430;23;20029;-71
2022/09/03 01:03:14;;;;;;;7.07;4.00;;;;;;;20.36;41.56;101131.47;6053664;23;20014;-72
2022/09/03 01:06:04;;;;;;;7.25;3.70;;;;;;;20.65;41.24;101129.00;6057890;23;20014;-73
2022/09/03 01:08:37;;;;;;;8.13;3.75;;;;;;;20.48;41.59;101128.56;6051585;23;20072;-73
2022/09/03 01:11:25;;;;;;;6.80;3.78;;;;;;;20.44;41.71;101132.16;6046800;23;20010;-73
2022/09/03 01:13:56;;;;;;;5.05;3.50;;;;;;;20.42;41.73;101134.00;6046116;23;20399;-73
2022/09/03 01:16:51;;;;;;;7.03;3.97;;;;;;;20.54;41.44;101128.41;6058855;23;20017;-72
2022/09/03 01:19:50;;;;;;;11.50;4.05;;;;;;;20.62;41.30;101123.78;6035986;23;20022;-71
2022/09/03 01:22:40;;;;;;;4.82;3.65;;;;;;;20.80;41.10;101135.69;6023654;23;20065;-71
2022/09/03 01:25:51;;;;;;;7.20;3.97;;;;;;;20.74;41.26;101135.00;6048558;23;20013;-72
2022/09/03 01:28:47;;;;;;;6.78;3.78;;;;;;;20.50;41.68;101139.09;5966977;23;20091;-72
2022/09/03 01:31:27;;;;;;;6.43;4.00;;;;;;;20.47;41.79;101141.81;6038076;23;20457;-71
2022/09/03 01:34:05;;;;;;;7.90;3.78;;;;;;;20.44;41.78;101133.94;6052735;23;20011;-71
2022/09/03 01:36:56;;;;;;;8.85;3.78;;;;;;;20.29;42.00;101145.72;6054775;23;20018;-72
2022/09/03 01:39:36;;;;;;;5.93;3.90;;;;;;;20.14;42.25;101146.91;6052005;23;20442;-71
2022/09/03 01:42:29;;;;;;;7.47;3.47;;;;;;;20.30;41.92;101149.25;6048862;23;20007;-70
2022/09/03 01:45:12;;;;;;;7.10;3.90;;;;;;;20.48;41.99;101139.13;6044568;23;20006;-71
2022/09/03 01:47:54;;;;;;;7.65;3.80;;;;;;;20.31;42.00;101138.59;6057493;23;20041;-71
2022/09/03 01:51:11;;;;;;;6.10;3.63;;;;;;;20.48;41.80;101136.50;6044561;23;20025;-72
2022/09/03 01:53:58;;;;;;;6.78;3.78;;;;;;;20.42;41.65;101141.94;6019867;23;20014;-71
2022/09/03 01:56:44;;;;;;;5.65;3.75;;;;;;;20.35;41.99;101140.31;6050815;23;20173;-71
2022/09/03 01:59:27;;;;;;;8.80;3.65;;;;;;;20.32;41.68;101135.09;6043768;23;20269;-72
2022/09/03 02:02:18;;;;;;;7.10;3.80;;;;;;;20.47;41.49;101140.03;6054403;23;20070;-71
2022/09/03 02:04:59;;;;;;;7.47;3.83;;;;;;;20.41;41.15;101128.72;6052891;23;20033;-73
2022/09/03 02:07:32;;;;;;;6.40;3.53;;;;;;;20.49;41.14;101121.47;6056053;23;20052;-71
2022/09/03 02:09:59;;;;;;;8.23;3.65;;;;;;;20.42;41.57;101131.34;6052165;23;20010;-70
2022/09/03 02:12:27;;;;;;;6.28;3.63;;;;;;;20.52;41.77;101116.09;6050591;23;20450;-71
2022/09/03 02:14:54;;;;;;;7.32;3.55;;;;;;;20.42;40.98;101110.16;6055060;23;20014;-71
2022/09/03 02:17:20;;;;;;;11.25;3.60;;;;;;;20.58;40.89;101114.16;6046231;23;20041;-71
2022/09/03 02:19:46;;;;;;;6.82;3.50;;;;;;;20.42;41.02;101112.81;6057169;23;20041;-70
2022/09/03 02:22:14;;;;;;;5.35;3.60;;;;;;;20.26;40.98;101114.00;6051481;23;20010;-72
2022/09/03 02:24:47;;;;;;;8.00;3.40;;;;;;;20.38;40.61;101118.19;6051257;23;20038;-71
2022/09/03 02:27:13;;;;;;;6.25;3.20;;;;;;;20.76;40.08;101115.50;6014596;23;20489;-72
2022/09/03 02:29:38;;;;;;;4.60;3.30;;;;;;;20.56;40.19;101109.81;6055130;23;20010;-71
2022/09/03 02:32:04;;;;;;;7.03;3.40;;;;;;;20.59;40.11;101117.69;6053005;23;20015;-73
2022/09/03 02:34:29;;;;;;;5.38;3.20;;;;;;;20.67;39.95;101113.09;6051508;23;20354;-73
2022/09/03 02:36:55;;;;;;;6.30;3.40;;;;;;;20.60;39.87;101114.13;6043528;23;20011;-71
2022/09/03 02:39:22;;;;;;;7.07;3.25;;;;;;;20.61;40.32;101116.72;6047624;23;20567;-73
2022/09/03 02:42:04;;;;;;;5.72;3.33;;;;;;;20.48;40.13;101114.44;6051264;23;20014;-71
2022/09/03 02:44:34;;;;;;;8.82;3.40;;;;;;;20.44;40.05;101115.38;6050816;23;20033;-72
2022/09/03 02:47:02;;;;;;;7.82;3.35;;;;;;;20.71;40.08;101114.75;6047220;23;20019;-71
2022/09/03 02:49:28;;;;;;;6.10;3.30;;;;;;;20.86;39.64;101116.16;6054756;23;20101;-71
2022/09/03 02:52:08;;;;;;;5.22;3.72;;;;;;;20.44;40.42;101118.91;6052695;23;20025;-73
2022/09/03 02:54:38;;;;;;;6.30;3.33;;;;;;;20.48;40.94;101104.72;6047276;23;20350;-73
2022/09/03 02:57:04;;;;;;;9.07;3.40;;;;;;;20.21;40.60;101106.16;6040926;23;20010;-72
2022/09/03 02:59:30;;;;;;;8.30;3.60;;;;;;;20.16;40.43;101110.69;6054390;23;20456;-72
2022/09/03 03:01:55;;;;;;;8.07;3.40;;;;;;;20.39;40.13;101110.22;6055109;23;20089;-71
2022/09/03 03:04:21;;;;;;;9.48;3.63;;;;;;;20.53;40.03;101107.25;6050860;23;20036;-71
2022/09/03 03:06:49;;;;;;;4.50;3.33;;;;;;;20.36;41.41;101114.72;6051802;23;20034;-72
2022/09/03 03:09:15;;;;;;;4.75;3.42;;;;;;;20.48;40.51;101107.38;6038664;23;20791;-72
2022/09/03 03:11:41;;;;;;;9.15;3.30;;;;;;;20.34;40.53;101108.56;6055496;23;20619;-71
2022/09/03 03:14:06;;;;;;;8.23;3.50;;;;;;;20.08;40.63;101110.00;6053016;23;20330;-71
2022/09/03 03:16:32;;;;;;;7.07;3.50;;;;;;;20.27;40.68;101107.81;6049056;23;20017;-71
2022/09/03 03:19:07;;;;;;;6.50;3.63;;;;;;;20.21;40.79;101106.16;6048665;23;20006;-71
2022/09/03 03:21:32;;;;;;;5.22;3.50;;;;;;;20.09;41.09;101114.38;6049890;23;20017;-71
2022/09/03 03:24:00;;;;;;;6.03;3.58;;;;;;;20.00;41.10;101111.97;6052885;23;20010;-71
2022/09/03 03:26:26;;;;;;;9.68;3.45;;;;;;;20.07;41.20;101115.31;6058108;23;20017;-71
2022/09/03 03:28:56;;;;;;;5.82;3.60;;;;;;;20.10;41.08;101109.97;6040793;23;20117;-73
2022/09/03 03:31:22;;;;;;;6.28;3.67;;;;;;;19.88;41.32;101112.22;6055509;23;20469;-71
2022/09/03 03:33:59;;;;;;;8.57;3.70;;;;;;;20.08;41.18;101107.34;6049549;23;20010;-71
2022/09/03 03:36:27;;;;;;;6.30;3.50;;;;;;;19.97;41.08;101116.44;6054852;23;20007;-73
2022/09/03 03:38:55;;;;;;;6.15;3.70;;;;;;;19.88;41.39;101117.50;6047205;23;20442;-72
2022/09/03 03:41:32;;;;;;;4.97;3.38;;;;;;;19.84;41.61;101111.41;6054434;23;20436;-72
2022/09/03 03:43:59;;;;;;;;;;;;;;;19.82;42.31;101126.41;6050842;23;20097;-71
2022/09/03 03:46:29;;;;;;;10.55;3.88;;;;;;;19.81;41.99;101116.75;6049456;23;20236;-71
2022/09/03 03:48:54;;;;;;;7.78;3.70;;;;;;;19.76;42.20;101121.25;6050181;23;20609;-72
2022/09/03 03:51:20;;;;;;;6.80;3.60;;;;;;;19.81;41.75;101114.13;6051850;23;20453;-71
2022/09/03 03:53:46;;;;;;;6.45;3.67;;;;;;;19.68;42.36;101117.03;6054198;23;20011;-71
2022/09/03 03:56:13;;;;;;;5.97;3.78;;;;;;;19.76;42.13;101123.06;6054655;23;20417;-72
2022/09/03 03:58:44;;;;;;;10.38;3.78;;;;;;;19.77;42.58;101125.66;6051980;23;20010;-71
2022/09/03 04:01:14;;;;;;;6.22;3.53;;;;;;;19.56;42.71;101119.94;6046349;23;20388;-72
2022/09/03 04:03:40;;;;;;;9.45;3.72;;;;;;;19.67;42.71;101116.16;6049113;23;20022;-71
2022/09/03 04:06:08;;;;;;;7.60;3.80;;;;;;;19.60;42.76;101125.13;6054754;23;20058;-71
2022/09/03 04:08:38;;;;;;;5.90;3.78;;;;;;;19.64;42.45;101116.22;6051045;23;20216;-72
2022/09/03 04:11:06;;;;;;;6.03;3.60;;;;;;;19.61;42.69;101121.56;6045897;23;20041;-71
2022/09/03 04:13:33;;;;;;;7.47;3.70;;;;;;;19.66;42.46;101117.06;6052292;23;20048;-71
2022/09/03 04:16:10;;;;;;;6.70;3.97;;;;;;;19.42;43.03;101123.66;6052369;23;20544;-73
2022/09/03 04:18:36;;;;;;;6.88;3.80;;;;;;;19.63;42.28;101121.56;6059439;23;20034;-71
2022/09/03 04:21:09;;;;;;;6.38;4.35;;;;;;;19.48;42.58;101120.06;6042390;23;20057;-71
2022/09/03 04:23:46;;;;;;;7.97;3.70;;;;;;;19.49;42.84;101116.53;6050800;23;20529;-71
2022/09/03 04:26:17;;;;;;;10.77;3.90;;;;;;;19.53;43.05;101119.97;6030786;23;20014;-72
2022/09/03 04:28:44;;;;;;;7.95;4.07;;;;;;;19.51;42.77;101113.84;6051178;23;20010;-71
2022/09/03 04:31:11;;;;;;;6.45;3.90;;;;;;;19.38;43.18;101115.84;6047863;23;20042;-72
2022/09/03 04:33:44;;;;;;;6.00;3.92;;;;;;;19.36;43.10;101118.50;6053843;23;20010;-72
2022/09/03 04:36:19;;;;;;;8.37;4.20;;;;;;;19.39;42.77;101118.41;6058199;23;20029;-72
2022/09/03 04:38:46;;;;;;;10.50;4.10;;;;;;;19.26;43.34;101110.78;6054132;23;20018;-73
2022/09/03 04:41:16;;;;;;;8.32;3.85;;;;;;;19.18;43.77;101110.91;6043869;23;20975;-73
2022/09/03 04:43:42;;;;;;;9.95;3.88;;;;;;;19.08;43.98;101104.06;6054811;23;20908;-73
2022/09/03 04:46:10;;;;;;;6.18;3.95;;;;;;;19.09;43.96;101099.63;6052145;23;20006;-73
2022/09/03 04:48:36;;;;;;;8.73;4.30;;;;;;;19.10;43.76;101112.81;6054160;23;20136;-73
2022/09/03 04:51:13;;;;;;;6.72;3.88;;;;;;;19.17;43.56;101108.28;6044157;23;20504;-71
2022/09/03 04:53:44;;;;;;;6.47;4.00;;;;;;;19.17;43.70;101111.81;6053588;23;20021;-73
2022/09/03 04:56:21;;;;;;;6.53;4.22;;;;;;;19.10;43.90;101102.22;6057446;23;20024;-71
2022/09/03 04:58:54;;;;;;;7.63;4.20;;;;;;;18.97;44.18;101100.69;6048766;23;20049;-72
2022/09/03 05:01:22;;;;;;;6.60;4.10;;;;;;;19.04;44.02;101103.22;6053776;23;20002;-71
2022/09/03 05:03:48;;;;;;;9.43;4.00;;;;;;;19.13;43.88;101104.84;6050667;23;20018;-71
2022/09/03 05:06:15;;;;;;;9.77;3.95;;;;;;;19.10;44.06;101106.66;6054335;23;20469;-71
2022/09/03 05:08:43;;;;;;;6.32;4.20;;;;;;;18.90;44.41;101114.94;6058284;23;20030;-71
2022/09/03 05:11:09;;;;;;;7.97;3.92;;;;;;;19.23;43.98;101114.34;6042461;23;20750;-72
2022/09/03 05:13:35;;;;;;;9.05;4.32;;;;;;;19.30;43.84;101115.09;6060526;23;20013;-71
2022/09/03 05:16:06;;;;;;;7.55;3.90;;;;;;;19.31;44.05;101115.06;6051879;23;20021;-72
2022/09/03 05:18:34;;;;;;;11.20;4.32;;;;;;;19.18;44.50;101118.84;6055285;23;20093;-71
2022/09/03 05:21:05;;;;;;;7.22;4.05;;;;;;;18.94;44.14;101112.22;6043307;23;20154;-70
2022/09/03 05:23:34;;;;;;;6.90;3.88;;;;;;;19.40;43.74;101114.88;6057508;23;20036;-73
2022/09/03 05:26:02;;;;;;;7.63;4.00;;;;;;;19.16;44.33;101119.75;6052211;23;20516;-71
2022/09/03 05:28:29;;;;;;;11.25;4.25;;;;;;;18.96;44.31;101123.63;6049585;23;20016;-74
2022/09/03 05:31:14;;;;;;;12.15;4.10;;;;;;;18.97;44.09;101120.06;6043567;23;20091;-71
2022/09/03 05:33:44;;;;;;;9.00;4.05;;;;;;;19.10;43.94;101114.56;6052481;23;20018;-72
2022/09/03 05:36:30;;;;;;;7.90;4.10;;;;;;;18.90;44.21;101115.81;6059693;23;20006;-72
2022/09/03 05:39:02;;;;;;;8.80;4.13;;;;;;;18.96;44.21;101115.72;6045594;23;20054;-72
2022/09/03 05:41:28;;;;;;;9.00;4.20;;;;;;;19.01;44.34;101111.22;6056698;23;20014;-73
2022/09/03 05:44:00;;;;;;;9.90;4.05;;;;;;;19.07;44.11;101112.00;6057142;23;20014;-73
2022/09/03 05:46:31;;;;;;;5.30;4.07;;;;;;;19.26;43.86;101119.56;6055803;23;20080;-73
2022/09/03 05:49:06;;;;;;;9.48;4.20;;;;;;;19.32;44.26;101126.53;6049350;23;20007;-71
2022/09/03 05:51:33;;;;;;;7.82;4.13;;;;;;;19.44;43.85;101121.00;6049817;23;20520;-71
2022/09/03 05:53:59;;;;;;;7.28;4.15;;;;;;;19.26;44.68;101118.69;6055218;23;20017;-71
2022/09/03 05:56:27;;;;;;;8.02;4.18;;;;;;;18.97;44.87;101108.63;6062025;23;20010;-72
2022/09/03 05:58:55;;;;;;;9.07;4.10;;;;;;;19.11;44.43;101113.69;6039628;23;20025;-71
2022/09/03 06:01:23;;;;;;;10.95;4.57;;;;;;;18.95;44.38;101123.66;6054733;23;20011;-74
2022/09/03 06:04:12;;;;;;;6.75;3.80;;;;;;;19.30;44.24;101123.03;6042775;23;20021;-75
2022/09/03 06:06:39;;;;;;;8.52;4.38;;;;;;;19.28;44.02;101117.75;6053339;23;20014;-71
2022/09/03 06:09:07;;;;;;;8.10;4.30;;;;;;;19.39;44.40;101120.22;6043234;23;20007;-72
2022/09/03 06:11:35;;;;;;;7.07;4.22;;;;;;;19.65;43.80;101133.81;6051215;23;20067;-73
2022/09/03 06:14:06;;;;;;;9.13;4.35;;;;;;;19.58;44.16;101123.41;6055424;23;20003;-73
2022/09/03 06:16:39;;;;;;;6.53;4.53;;;;;;;19.17;44.54;101126.78;6027066;23;20105;-72
2022/09/03 06:19:08;;;;;;;6.30;4.10;;;;;;;19.42;44.77;101128.97;6041030;23;20010;-73
2022/09/03 06:21:43;;;;;;;13.65;4.68;;;;;;;19.33;44.39;101130.91;6050012;23;20070;-72
2022/09/03 06:24:45;;;;;;;7.45;4.30;;;;;;;19.31;44.39;101127.41;6051509;23;20025;-73
2022/09/03 06:27:20;;;;;;;6.75;4.72;;;;;;;19.09;44.57;101132.19;6052897;23;20460;-73
2022/09/03 06:29:45;;;;;;;6.65;4.10;;;;;;;19.65;44.01;101128.53;6055474;23;20014;-72
2022/09/03 06:32:31;;;;;;;9.20;4.18;;;;;;;19.90;43.11;101135.97;6053897;23;20057;-72
2022/09/03 06:34:56;;;;;;;7.90;4.22;;;;;;;20.73;42.04;101131.50;6046864;23;20015;-73
2022/09/03 06:37:22;;;;;;;6.97;4.22;;;;;;;21.72;40.05;101124.44;6047552;23;20014;-72
2022/09/03 06:39:49;;;;;;;10.82;4.22;;;;;;;22.48;39.18;101123.97;6049243;23;20010;-72
2022/09/03 06:42:14;;;;;;;6.00;4.20;;;;;;;22.90;37.45;101127.03;6055557;23;20495;-73
2022/09/03 06:44:40;;;;;;;7.22;4.13;;;;;;;23.39;36.87;101131.53;6056470;23;20091;-72
2022/09/03 06:47:05;;;;;;;9.52;4.00;;;;;;;22.96;37.30;101134.81;6041218;23;20430;-73
2022/09/03 06:49:31;;;;;;;7.88;4.03;;;;;;;23.72;36.08;101142.81;6057244;23;20021;-73
2022/09/03 06:51:56;;;;;;;9.02;4.10;;;;;;;23.57;35.61;101144.22;6050211;23;20010;-73
2022/09/03 06:54:24;;;;;;;8.00;3.60;;;;;;;23.99;35.67;101144.44;6052758;23;20460;-72
2022/09/03 06:56:49;;;;;;;8.02;3.88;;;;;;;23.84;36.26;101153.88;6053257;23;20029;-72
2022/09/03 06:59:15;;;;;;;7.03;4.05;;;;;;;23.39;36.55;101148.38;6040927;23;20093;-72
2022/09/03 07:01:43;;;;;;;9.15;3.95;;;;;;;22.56;37.90;101143.19;6055202;23;20018;-72
2022/09/03 07:04:08;;;;;;;10.68;4.20;;;;;;;22.52;37.71;101152.16;6049836;23;20789;-72
2022/09/03 07:06:37;;;;;;;8.90;3.70;;;;;;;23.66;36.83;101146.56;6052770;23;20006;-73
2022/09/03 07:09:04;;;;;;;6.38;3.83;;;;;;;23.69;37.31;101145.56;6045807;23;20002;-73
2022/09/03 07:11:32;;;;;;;9.25;4.07;;;;;;;23.39;36.46;101147.50;6050168;23;20006;-72
2022/09/03 07:14:02;;;;;;;9.77;3.97;;;;;;;23.32;37.20;101151.31;6057309;23;20359;-71
2022/09/03 07:16:31;;;;;;;5.60;3.50;;;;;;;24.09;36.57;101147.63;6049154;23;20057;-71
2022/09/03 07:18:56;;;;;;;8.38;3.40;;;;;;;23.90;35.87;101154.56;6043482;23;20253;-72
2022/09/03 07:21:24;;;;;;;7.75;3.55;;;;;;;24.27;35.23;101156.75;6054382;23;20098;-72
2022/09/03 07:23:51;;;;;;;7.57;3.60;;;;;;;24.27;35.93;101137.13;6049405;23;20010;-72
2022/09/03 07:26:20;;;;;;;6.22;3.60;;;;;;;23.78;35.30;101147.91;6054854;23;20519;-71
2022/09/03 07:28:46;;;;;;;6.65;3.80;;;;;;;23.29;36.68;101146.97;6040998;23;20264;-72
2022/09/03 07:31:15;;;;;;;5.88;3.90;;;;;;;23.90;36.49;101150.13;6053269;23;20705;-71
2022/09/03 07:33:41;;;;;;;6.47;3.70;;;;;;;24.10;35.15;101149.34;6050099;23;20080;-72
2022/09/03 07:36:10;;;;;;;6.07;3.63;;;;;;;24.72;34.34;101146.91;6046256;23;20326;-72
2022/09/03 07:38:36;;;;;;;6.15;3.78;;;;;;;25.09;33.65;101140.94;6058416;23;20022;-71
2022/09/03 07:41:12;;;;;;;8.93;3.85;;;;;;;24.53;35.22;101151.25;6041792;23;20017;-71
2022/09/03 07:43:45;;;;;;;7.30;3.80;;;;;;;23.45;36.38;101144.63;6053384;23;20430;-73
2022/09/03 07:46:12;;;;;;;6.82;3.95;;;;;;;23.17;37.13;101146.53;6050145;23;20010;-71
2022/09/03 07:48:40;;;;;;;9.90;3.70;;;;;;;24.00;36.70;101147.97;6048948;23;20041;-72
2022/09/03 07:51:06;;;;;;;10.27;3.58;;;;;;;23.95;36.55;101147.28;6043868;23;20007;-71
2022/09/03 07:53:32;;;;;;;7.30;3.50;;;;;;;24.58;35.32;101152.78;6056389;23;20427;-73
2022/09/03 07:56:06;;;;;;;8.45;4.00;;;;;;;24.13;36.91;101157.25;6051917;23;20135;-71
2022/09/03 09:47:45;;;;;;;6.53;3.63;;;;;;;25.28;34.55;101178.41;4941015;27;1413801;-68
2022/09/03 09:50:19;;;;;;;8.95;3.47;;;;;;;26.12;34.20;101179.09;4987245;28;20057;-66
2022/09/03 09:52:45;;;;;;;6.53;3.60;;;;;;;25.61;34.03;101189.47;5002432;28;20394;-64
2022/09/03 09:55:22;;;;;;;5.55;3.20;;;;;;;25.62;34.05;101180.50;4987303;28;20408;-66
2022/09/03 09:58:08;;;;;;;10.60;3.45;;;;;;;26.04;34.49;101178.59;4993801;28;20359;-66
2022/09/03 10:00:36;;;;;;;7.20;2.97;;;;;;;26.64;32.84;101177.53;5001185;28;20156;-72
2022/09/03 10:03:09;;;;;;;10.02;3.38;;;;;;;26.64;33.48;101180.22;4996360;28;20033;-74
2022/09/03 10:05:38;;;;;;;4.20;2.95;;;;;;;26.30;32.63;101171.19;4984233;28;20037;-72
2022/09/03 10:08:27;;;;;;;7.47;3.40;;;;;;;26.33;33.11;101171.03;5001096;28;20620;-73
2022/09/03 10:11:07;;;;;;;5.63;3.30;;;;;;;26.38;32.98;101180.59;5012103;28;20166;-74
2022/09/03 10:13:42;;;;;;;5.60;2.95;;;;;;;27.10;32.81;101174.41;4999342;28;20076;-69
2022/09/03 10:16:27;;;;;;;4.72;3.00;;;;;;;26.97;31.80;101169.69;4974088;28;20035;-71
2022/09/03 10:19:03;;;;;;;5.50;3.45;;;;;;;27.11;31.67;101177.03;4987498;28;20029;-70
2022/09/03 10:21:39;;;;;;;11.18;3.90;;;;;;;26.55;32.02;101169.06;4999382;28;20116;-62
2022/09/03 10:24:32;;;;;;;6.47;3.47;;;;;;;27.03;31.27;101174.72;4987402;28;20033;-63
2022/09/03 10:26:58;;;;;;;7.60;3.53;;;;;;;26.75;32.09;101166.31;4986166;28;20029;-63
2022/09/03 10:29:28;;;;;;;5.63;3.22;;;;;;;26.65;31.97;101173.06;4988676;28;20064;-62
2022/09/03 10:32:27;;;;;;;5.55;3.20;;;;;;;27.15;32.79;101169.69;4992174;28;20738;-63
2022/09/03 10:35:34;;;;;;;4.78;3.10;;;;;;;27.26;31.93;101167.38;4957306;28;20549;-62
2022/09/03 10:38:18;;;;;;;10.88;3.08;;;;;;;27.40;30.56;101170.16;4998277;28;20844;-62
2022/09/03 10:40:49;;;;;;;9.80;3.58;;;;;;;27.10;31.29;101171.75;4988319;28;20033;-63
2022/09/03 10:43:33;;;;;;;6.25;3.10;;;;;;;27.57;31.11;101167.50;4987907;28;20037;-63
2022/09/03 10:46:06;;;;;;;8.20;3.17;;;;;;;28.08;30.57;101169.22;4975137;28;20060;-62
2022/09/03 10:48:31;;;;;;;29.08;4.32;;;;;;;28.00;30.29;101173.25;4992822;28;20482;-62
2022/09/03 10:51:15;;;;;;;4.60;3.35;;;;;;;28.27;30.50;101165.56;4990650;28;20952;-63
2022/09/03 10:54:07;;;;;;;6.22;3.60;;;;;;;27.61;31.22;101171.78;5003797;28;20064;-62
2022/09/03 10:56:51;;;;;;;6.57;3.20;;;;;;;27.77;30.60;101169.13;4986823;28;20025;-63
2022/09/03 10:59:40;;;;;;;39.95;4.20;;;;;;;28.19;30.30;101169.53;4974800;28;20806;-62
2022/09/03 11:02:43;;;;;;;9.18;4.03;;;;;;;27.81;30.84;101168.06;4989643;28;20072;-63
2022/09/03 11:05:21;;;;;;;5.32;3.60;;;;;;;27.89;30.40;101162.25;4977509;28;20668;-63
2022/09/03 11:08:28;;;;;;;7.93;3.40;;;;;;;28.14;29.88;101163.56;4988237;28;20498;-62
2022/09/03 11:11:10;;;;;;;8.05;4.10;;;;;;;27.42;30.84;101161.13;4968786;28;20041;-62
2022/09/03 11:14:09;;;;;;;9.05;3.53;;;;;;;27.80;31.67;101169.88;4979769;28;20124;-63
2022/09/03 11:16:51;;;;;;;9.80;4.47;;;;;;;27.63;31.46;101166.34;4979868;28;20048;-63
2022/09/03 11:19:20;;;;;;;8.23;4.03;;;;;;;27.63;31.51;101169.88;4980022;28;20352;-63
2022/09/03 11:21:47;;;;;;;5.88;4.32;;;;;;;27.05;32.50;101164.81;4973992;28;20099;-64
2022/09/03 11:24:19;;;;;;;6.03;4.30;;;;;;;27.54;32.07;101166.81;4979051;28;20532;-63
2022/09/03 11:26:56;;;;;;;9.15;4.10;;;;;;;27.73;31.53;101159.53;4979127;28;20589;-63
2022/09/03 11:29:48;;;;;;;7.25;4.22;;;;;;;27.81;31.29;101163.53;4978371;28;20036;-62
2022/09/03 11:32:25;;;;;;;11.00;4.20;;;;;;;28.08;32.41;101169.22;4973168;28;20025;-63
2022/09/03 11:34:55;;;;;;;10.35;4.13;;;;;;;27.72;31.72;101166.72;4970692;28;20037;-63
2022/09/03 11:37:20;;;;;;;11.10;4.85;;;;;;;27.60;31.60;101163.81;4983096;28;20162;-63
2022/09/03 11:40:17;;;;;;;8.98;4.30;;;;;;;27.96;31.42;101167.22;4977667;28;20071;-62
2022/09/03 11:42:44;;;;;;;5.80;4.22;;;;;;;27.37;32.00;101167.66;4956957;28;20050;-63
2022/09/03 11:45:33;;;;;;;7.88;4.40;;;;;;;27.49;31.69;101166.16;4963387;28;20359;-63
2022/09/03 11:48:15;;;;;;;6.93;4.28;;;;;;;27.82;31.65;101162.59;4969960;28;20148;-63
2022/09/03 11:50:56;;;;;;;5.72;3.60;;;;;;;28.23;32.12;101159.50;4976002;28;20034;-63
2022/09/03 11:53:33;;;;;;;8.45;4.47;;;;;;;28.35;31.04;101150.78;4965375;28;20049;-64
2022/09/03 11:56:22;;;;;;;10.13;4.10;;;;;;;28.14;32.10;101154.66;4995065;28;20515;-63
2022/09/03 11:59:23;;;;;;;7.60;3.75;;;;;;;28.57;31.34;101153.09;4980576;28;20582;-65
2022/09/03 12:02:00;;;;;;;7.70;4.53;;;;;;;28.28;31.40;101157.44;4982144;28;20061;-64
2022/09/03 12:04:47;;;;;;;9.38;4.20;;;;;;;28.16;31.66;101159.00;4958685;28;20047;-63
2022/09/03 12:07:38;;;;;;;6.82;3.50;;;;;;;28.75;32.06;101151.22;4958915;28;20401;-62
2022/09/03 12:10:28;;;;;;;6.88;3.65;;;;;;;28.95;30.86;101143.75;4967806;28;20054;-63
2022/09/03 12:13:31;;;;;;;6.20;4.28;;;;;;;29.18;30.14;101147.75;4980407;28;20048;-63
2022/09/03 12:16:11;;;;;;;10.82;5.05;;;;;;;28.83;31.48;101141.78;4988256;28;20045;-63
2022/09/03 12:18:40;;;;;;;8.98;5.72;;;;;;;28.60;30.64;101153.81;4976787;28;20467;-63
2022/09/03 12:21:08;;;;;;;8.35;4.50;;;;;;;28.50;32.07;101146.34;4965909;28;20056;-63
2022/09/03 12:23:44;;;;;;;6.30;4.00;;;;;;;28.16;31.39;101150.06;4979847;28;20148;-63
2022/09/03 12:26:15;;;;;;;5.47;3.40;;;;;;;28.76;30.74;101150.28;4979183;28;20120;-63
2022/09/03 12:28:44;;;;;;;8.73;3.53;;;;;;;28.64;30.66;101147.31;4994206;28;20029;-63
2022/09/03 12:31:20;;;;;;;5.85;3.25;;;;;;;28.72;29.70;101144.19;4967697;28;20145;-63
2022/09/03 12:33:48;;;;;;;9.75;3.35;;;;;;;29.02;29.70;101141.56;4991670;28;20104;-63
2022/09/03 12:36:14;;;;;;;5.13;2.80;;;;;;;28.98;31.00;101143.56;4984846;28;20041;-62
2022/09/03 12:38:42;;;;;;;12.75;3.15;;;;;;;29.04;30.36;101143.19;4987864;28;20082;-64
2022/09/03 12:41:30;;;;;;;9.27;3.28;;;;;;;28.90;28.97;101140.47;4975507;28;20524;-64
2022/09/03 12:43:58;;;;;;;4.93;3.03;;;;;;;29.14;30.11;101130.09;4967622;28;20056;-63
2022/09/03 12:46:26;;;;;;;6.03;3.35;;;;;;;28.87;29.69;101134.41;4980505;28;20475;-63
2022/09/03 12:49:07;;;;;;;5.93;3.63;;;;;;;28.67;30.88;101135.53;4984920;28;20034;-64
2022/09/03 12:51:36;;;;;;;10.65;3.50;;;;;;;28.56;29.48;101129.91;4972693;28;20542;-63
2022/09/03 12:54:06;;;;;;;7.82;3.30;;;;;;;28.80;29.98;101133.91;4974859;28;20025;-65
2022/09/03 12:56:56;;;;;;;7.80;3.25;;;;;;;28.42;28.99;101137.91;4979236;28;20033;-64
2022/09/03 12:59:52;;;;;;;9.27;4.03;;;;;;;27.95;30.21;101132.44;4974730;28;20098;-64
2022/09/03 13:02:52;;;;;;;8.70;3.60;;;;;;;28.21;30.62;101127.41;4968980;28;20057;-63
2022/09/03 13:05:24;;;;;;;6.18;3.70;;;;;;;28.68;30.75;101123.84;4970215;28;20045;-62
2022/09/03 13:07:54;;;;;;;14.50;3.88;;;;;;;28.52;30.49;101128.38;4995471;28;20486;-63
2022/09/03 13:10:23;;;;;;;9.20;4.50;;;;;;;28.35;29.82;101128.47;4979410;28;20042;-62
2022/09/03 13:12:50;;;;;;;8.05;4.05;;;;;;;28.33;29.10;101127.69;4989602;28;20040;-62
2022/09/03 13:15:24;;;;;;;7.28;3.50;;;;;;;28.61;29.58;101130.50;4974566;28;20083;-63
2022/09/03 13:18:09;;;;;;;6.63;4.30;;;;;;;28.37;29.69;101127.41;4990613;28;20025;-63
2022/09/03 13:21:06;;;;;;;11.82;4.30;;;;;;;28.25;29.86;101128.97;4984314;28;20197;-62
2022/09/03 13:23:50;;;;;;;6.15;3.88;;;;;;;28.84;29.21;101119.38;4966523;28;20064;-62
2022/09/03 13:26:30;;;;;;;5.28;3.53;;;;;;;29.04;30.09;101123.53;4988276;28;20112;-63
2022/09/03 13:29:26;;;;;;;8.23;4.07;;;;;;;28.61;30.07;101127.81;4973441;28;20069;-63
2022/09/03 13:31:56;;;;;;;9.20;4.18;;;;;;;28.54;29.82;101123.78;4986076;28;20095;-64
2022/09/03 13:34:36;;;;;;;7.03;3.92;;;;;;;28.39;30.31;101132.69;4985448;28;20053;-62
2022/09/03 13:37:18;;;;;;;6.45;4.05;;;;;;;28.24;29.71;101118.31;4968903;28;20812;-63
2022/09/03 13:39:53;;;;;;;7.90;4.10;;;;;;;28.75;29.38;101122.56;4969592;28;20120;-63
2022/09/03 13:43:01;;;;;;;7.55;3.90;;;;;;;28.95;29.30;101119.59;4978510;28;20063;-63
2022/09/03 13:45:37;;;;;;;7.38;4.03;;;;;;;28.77;29.92;101122.50;4975260;28;20044;-63
2022/09/03 13:51:31;;;;;;;6.55;3.65;;;;;;;28.35;28.58;101123.09;4964385;28;20168;-63
2022/09/03 13:54:03;;;;;;;7.13;3.55;;;;;;;28.94;29.01;101117.84;4977410;28;20089;-63